sensor_id;sensor_type;location;lat;lon;timestamp;P1;durP1;ratioP1;P2;durP2;ratioP2
17686;SDS011;8962;52.538;13.266;2022-10-20T00:02:04;5.88;;;2.92;;
17686;SDS011;8962;52.538;13.266;2022-10-20T00:04:32;4.13;;;2.78;;
17686;SDS011;8962;52.538;13.266;2022-10-20T00:06:59;3.33;;;2.42;;
17686;SDS011;8962;52.538;13.266;2022-10-20T00:09:26;4.47;;;2.88;;
17686;SDS011;8962;52.538;13.266;2022-10-20T00:11:53;4.85;;;2.75;;
17686;SDS011;8962;52.538;13.266;2022-10-20T00:14:20;4.28;;;2.67;;
17686;SDS011;8962;52.538;13.266;2022-10-20T00:16:47;8.93;;;2.92;;
17686;SDS011;8962;52.538;13.266;2022-10-20T00:19:14;4.25;;;2.70;;
17686;SDS011;8962;52.538;13.266;2022-10-20T00:21:42;4.90;;;3.10;;
17686;SDS011;8962;52.538;13.266;2022-10-20T00:24:09;7.30;;;2.67;;
17686;SDS011;8962;52.538;13.266;2022-10-20T00:26:35;3.70;;;2.63;;
17686;SDS011;8962;52.538;13.266;2022-10-20T00:29:02;4.25;;;2.63;;
17686;SDS011;8962;52.538;13.266;2022-10-20T00:31:30;6.18;;;3.00;;
17686;SDS011;8962;52.538;13.266;2022-10-20T00:33:57;4.65;;;2.55;;
17686;SDS011;8962;52.538;13.266;2022-10-20T00:36:24;5.13;;;2.80;;
17686;SDS011;8962;52.538;13.266;2022-10-20T00:38:55;5.07;;;2.80;;
17686;SDS011;8962;52.538;13.266;2022-10-20T00:41:23;5.05;;;2.78;;
17686;SDS011;8962;52.538;13.266;2022-10-20T00:43:51;5.07;;;2.78;;
17686;SDS011;8962;52.538;13.266;2022-10-20T00:46:20;5.82;;;2.85;;
17686;SDS011;8962;52.538;13.266;2022-10-20T00:48:50;5.53;;;2.88;;
17686;SDS011;8962;52.538;13.266;2022-10-20T00:51:20;3.25;;;2.65;;
17686;SDS011;8962;52.538;13.266;2022-10-20T00:53:49;3.53;;;2.40;;
17686;SDS011;8962;52.538;13.266;2022-10-20T00:56:21;4.45;;;2.58;;
17686;SDS011;8962;52.538;13.266;2022-10-20T00:58:48;4.60;;;2.60;;
17686;SDS011;8962;52.538;13.266;2022-10-20T01:01:16;5.32;;;2.72;;
17686;SDS011;8962;52.538;13.266;2022-10-20T01:03:45;7.22;;;2.58;;
17686;SDS011;8962;52.538;13.266;2022-10-20T01:06:15;6.93;;;2.92;;
17686;SDS011;8962;52.538;13.266;2022-10-20T01:08:43;3.78;;;2.78;;
17686;SDS011;8962;52.538;13.266;2022-10-20T01:11:17;5.78;;;2.97;;
17686;SDS011;8962;52.538;13.266;2022-10-20T01:13:56;4.88;;;2.60;;
17686;SDS011;8962;52.538;13.266;2022-10-20T01:16:45;7.15;;;2.60;;
17686;SDS011;8962;52.538;13.266;2022-10-20T01:22:21;6.15;;;2.38;;
17686;SDS011;8962;52.538;13.266;2022-10-20T01:25:05;9.25;;;3.38;;
17686;SDS011;8962;52.538;13.266;2022-10-20T01:27:43;4.78;;;3.00;;
17686;SDS011;8962;52.538;13.266;2022-10-20T01:30:12;5.97;;;2.65;;
17686;SDS011;8962;52.538;13.266;2022-10-20T01:35:40;6.38;;;2.70;;
17686;SDS011;8962;52.538;13.266;2022-10-20T01:38:19;5.13;;;2.80;;
17686;SDS011;8962;52.538;13.266;2022-10-20T01:40:51;6.07;;;2.85;;
17686;SDS011;8962;52.538;13.266;2022-10-20T01:43:26;4.88;;;2.80;;
17686;SDS011;8962;52.538;13.266;2022-10-20T01:45:56;4.15;;;2.50;;
17686;SDS011;8962;52.538;13.266;2022-10-20T01:48:26;5.53;;;2.53;;
17686;SDS011;8962;52.538;13.266;2022-10-20T01:50:57;5.72;;;2.83;;
17686;SDS011;8962;52.538;13.266;2022-10-20T01:53:28;5.22;;;2.90;;
17686;SDS011;8962;52.538;13.266;2022-10-20T01:55:57;4.82;;;2.60;;
17686;SDS011;8962;52.538;13.266;2022-10-20T01:58:39;3.97;;;2.65;;
17686;SDS011;8962;52.538;13.266;2022-10-20T02:01:33;6.30;;;2.75;;
17686;SDS011;8962;52.538;13.266;2022-10-20T02:04:12;6.20;;;3.22;;
17686;SDS011;8962;52.538;13.266;2022-10-20T02:06:42;8.77;;;3.42;;
17686;SDS011;8962;52.538;13.266;2022-10-20T02:09:16;6.53;;;2.53;;
17686;SDS011;8962;52.538;13.266;2022-10-20T02:11:47;4.93;;;2.80;;
17686;SDS011;8962;52.538;13.266;2022-10-20T02:14:19;6.28;;;2.70;;
17686;SDS011;8962;52.538;13.266;2022-10-20T02:16:51;4.72;;;2.55;;
17686;SDS011;8962;52.538;13.266;2022-10-20T02:19:22;5.05;;;2.70;;
17686;SDS011;8962;52.538;13.266;2022-10-20T02:21:55;5.90;;;2.83;;
17686;SDS011;8962;52.538;13.266;2022-10-20T02:24:25;6.85;;;3.20;;
17686;SDS011;8962;52.538;13.266;2022-10-20T02:26:54;4.50;;;2.72;;
17686;SDS011;8962;52.538;13.266;2022-10-20T02:29:28;4.97;;;2.80;;
17686;SDS011;8962;52.538;13.266;2022-10-20T02:32:00;5.00;;;2.80;;
17686;SDS011;8962;52.538;13.266;2022-10-20T02:34:28;4.97;;;2.30;;
17686;SDS011;8962;52.538;13.266;2022-10-20T02:36:55;3.38;;;2.72;;
17686;SDS011;8962;52.538;13.266;2022-10-20T02:39:23;5.15;;;2.85;;
17686;SDS011;8962;52.538;13.266;2022-10-20T02:41:54;4.63;;;2.97;;
17686;SDS011;8962;52.538;13.266;2022-10-20T02:44:20;4.65;;;3.00;;
17686;SDS011;8962;52.538;13.266;2022-10-20T02:46:49;7.05;;;3.10;;
17686;SDS011;8962;52.538;13.266;2022-10-20T02:49:16;4.82;;;2.78;;
17686;SDS011;8962;52.538;13.266;2022-10-20T02:51:45;4.53;;;2.75;;
17686;SDS011;8962;52.538;13.266;2022-10-20T02:54:13;4.20;;;2.50;;
17686;SDS011;8962;52.538;13.266;2022-10-20T02:56:40;3.75;;;2.35;;
17686;SDS011;8962;52.538;13.266;2022-10-20T02:59:07;5.43;;;3.00;;
17686;SDS011;8962;52.538;13.266;2022-10-20T03:01:38;4.97;;;2.95;;
17686;SDS011;8962;52.538;13.266;2022-10-20T03:04:08;3.80;;;2.67;;
17686;SDS011;8962;52.538;13.266;2022-10-20T03:06:38;5.28;;;2.80;;
17686;SDS011;8962;52.538;13.266;2022-10-20T03:09:05;4.03;;;2.70;;
17686;SDS011;8962;52.538;13.266;2022-10-20T03:11:32;4.88;;;2.92;;
17686;SDS011;8962;52.538;13.266;2022-10-20T03:14:00;5.18;;;3.15;;
17686;SDS011;8962;52.538;13.266;2022-10-20T03:16:27;4.53;;;2.60;;
17686;SDS011;8962;52.538;13.266;2022-10-20T03:18:55;4.05;;;3.15;;
17686;SDS011;8962;52.538;13.266;2022-10-20T03:21:23;6.63;;;3.28;;
17686;SDS011;8962;52.538;13.266;2022-10-20T03:23:51;6.13;;;3.35;;
17686;SDS011;8962;52.538;13.266;2022-10-20T03:26:18;6.47;;;2.78;;
17686;SDS011;8962;52.538;13.266;2022-10-20T03:28:46;5.97;;;3.40;;
17686;SDS011;8962;52.538;13.266;2022-10-20T03:31:13;4.50;;;2.83;;
17686;SDS011;8962;52.538;13.266;2022-10-20T03:33:42;6.25;;;3.08;;
17686;SDS011;8962;52.538;13.266;2022-10-20T03:36:09;5.45;;;3.15;;
17686;SDS011;8962;52.538;13.266;2022-10-20T03:38:38;6.65;;;3.25;;
17686;SDS011;8962;52.538;13.266;2022-10-20T03:41:07;4.47;;;3.00;;
17686;SDS011;8962;52.538;13.266;2022-10-20T03:43:34;5.30;;;3.05;;
17686;SDS011;8962;52.538;13.266;2022-10-20T03:46:01;6.10;;;3.33;;
17686;SDS011;8962;52.538;13.266;2022-10-20T03:48:30;4.93;;;3.45;;
17686;SDS011;8962;52.538;13.266;2022-10-20T03:50:58;4.35;;;3.17;;
17686;SDS011;8962;52.538;13.266;2022-10-20T03:53:28;6.93;;;3.50;;
17686;SDS011;8962;52.538;13.266;2022-10-20T03:55:56;6.35;;;3.42;;
17686;SDS011;8962;52.538;13.266;2022-10-20T03:58:24;6.93;;;3.25;;
17686;SDS011;8962;52.538;13.266;2022-10-20T04:00:50;5.88;;;3.17;;
17686;SDS011;8962;52.538;13.266;2022-10-20T04:03:20;5.72;;;3.78;;
17686;SDS011;8962;52.538;13.266;2022-10-20T04:05:48;8.25;;;4.15;;
17686;SDS011;8962;52.538;13.266;2022-10-20T04:08:15;9.80;;;3.80;;
17686;SDS011;8962;52.538;13.266;2022-10-20T04:10:44;6.28;;;3.38;;
17686;SDS011;8962;52.538;13.266;2022-10-20T04:13:13;7.90;;;3.88;;
17686;SDS011;8962;52.538;13.266;2022-10-20T04:15:46;7.95;;;3.83;;
17686;SDS011;8962;52.538;13.266;2022-10-20T04:18:14;6.85;;;3.78;;
17686;SDS011;8962;52.538;13.266;2022-10-20T04:20:43;6.28;;;3.88;;
17686;SDS011;8962;52.538;13.266;2022-10-20T04:23:10;5.20;;;3.67;;
17686;SDS011;8962;52.538;13.266;2022-10-20T04:25:38;8.02;;;3.88;;
17686;SDS011;8962;52.538;13.266;2022-10-20T04:28:11;7.18;;;3.92;;
17686;SDS011;8962;52.538;13.266;2022-10-20T04:30:39;7.57;;;4.05;;
17686;SDS011;8962;52.538;13.266;2022-10-20T04:33:06;6.82;;;4.13;;
17686;SDS011;8962;52.538;13.266;2022-10-20T04:35:33;7.82;;;3.92;;
17686;SDS011;8962;52.538;13.266;2022-10-20T04:38:00;7.45;;;4.05;;
17686;SDS011;8962;52.538;13.266;2022-10-20T04:40:30;6.78;;;4.20;;
17686;SDS011;8962;52.538;13.266;2022-10-20T04:42:57;8.93;;;4.60;;
17686;SDS011;8962;52.538;13.266;2022-10-20T04:45:26;7.72;;;4.18;;
17686;SDS011;8962;52.538;13.266;2022-10-20T04:47:53;7.22;;;4.28;;
17686;SDS011;8962;52.538;13.266;2022-10-20T04:50:20;8.32;;;4.70;;
17686;SDS011;8962;52.538;13.266;2022-10-20T04:53:00;8.48;;;4.50;;
17686;SDS011;8962;52.538;13.266;2022-10-20T04:55:26;6.22;;;4.07;;
17686;SDS011;8962;52.538;13.266;2022-10-20T04:57:54;7.60;;;4.78;;
17686;SDS011;8962;52.538;13.266;2022-10-20T05:00:21;8.85;;;4.53;;
17686;SDS011;8962;52.538;13.266;2022-10-20T05:02:50;10.90;;;5.07;;
17686;SDS011;8962;52.538;13.266;2022-10-20T05:05:16;7.15;;;4.57;;
17686;SDS011;8962;52.538;13.266;2022-10-20T05:07:45;12.30;;;5.18;;
17686;SDS011;8962;52.538;13.266;2022-10-20T05:10:12;8.07;;;4.72;;
17686;SDS011;8962;52.538;13.266;2022-10-20T05:12:41;12.43;;;5.13;;
17686;SDS011;8962;52.538;13.266;2022-10-20T05:15:09;11.50;;;5.30;;
17686;SDS011;8962;52.538;13.266;2022-10-20T05:17:37;10.95;;;5.13;;
17686;SDS011;8962;52.538;13.266;2022-10-20T05:20:05;9.70;;;5.07;;
17686;SDS011;8962;52.538;13.266;2022-10-20T05:22:33;8.13;;;5.05;;
17686;SDS011;8962;52.538;13.266;2022-10-20T05:25:00;10.52;;;4.80;;
17686;SDS011;8962;52.538;13.266;2022-10-20T05:27:30;11.30;;;5.55;;
17686;SDS011;8962;52.538;13.266;2022-10-20T05:29:57;9.70;;;5.25;;
17686;SDS011;8962;52.538;13.266;2022-10-20T05:32:26;9.52;;;5.10;;
17686;SDS011;8962;52.538;13.266;2022-10-20T05:34:55;10.23;;;5.32;;
17686;SDS011;8962;52.538;13.266;2022-10-20T05:37:23;7.25;;;4.95;;
17686;SDS011;8962;52.538;13.266;2022-10-20T05:39:51;13.95;;;5.70;;
17686;SDS011;8962;52.538;13.266;2022-10-20T05:42:18;9.48;;;5.30;;
17686;SDS011;8962;52.538;13.266;2022-10-20T05:44:44;12.15;;;5.55;;
17686;SDS011;8962;52.538;13.266;2022-10-20T05:47:11;8.80;;;5.60;;
17686;SDS011;8962;52.538;13.266;2022-10-20T05:49:38;10.45;;;5.30;;
17686;SDS011;8962;52.538;13.266;2022-10-20T05:52:05;10.50;;;5.88;;
17686;SDS011;8962;52.538;13.266;2022-10-20T05:57:01;10.35;;;5.53;;
17686;SDS011;8962;52.538;13.266;2022-10-20T05:59:29;11.02;;;5.55;;
17686;SDS011;8962;52.538;13.266;2022-10-20T06:01:58;11.50;;;6.30;;
17686;SDS011;8962;52.538;13.266;2022-10-20T06:04:25;13.05;;;5.80;;
17686;SDS011;8962;52.538;13.266;2022-10-20T06:06:54;9.85;;;5.80;;
17686;SDS011;8962;52.538;13.266;2022-10-20T06:09:24;12.10;;;5.95;;
17686;SDS011;8962;52.538;13.266;2022-10-20T06:11:53;9.57;;;5.57;;
17686;SDS011;8962;52.538;13.266;2022-10-20T06:14:20;15.57;;;6.05;;
17686;SDS011;8962;52.538;13.266;2022-10-20T06:16:48;9.57;;;5.95;;
17686;SDS011;8962;52.538;13.266;2022-10-20T06:19:17;11.40;;;5.70;;
17686;SDS011;8962;52.538;13.266;2022-10-20T06:21:46;11.70;;;6.20;;
17686;SDS011;8962;52.538;13.266;2022-10-20T06:24:14;13.02;;;6.00;;
17686;SDS011;8962;52.538;13.266;2022-10-20T06:26:41;13.88;;;6.22;;
17686;SDS011;8962;52.538;13.266;2022-10-20T06:29:14;11.20;;;5.80;;
17686;SDS011;8962;52.538;13.266;2022-10-20T06:31:46;9.75;;;5.90;;
17686;SDS011;8962;52.538;13.266;2022-10-20T06:34:17;16.88;;;6.10;;
17686;SDS011;8962;52.538;13.266;2022-10-20T06:36:44;10.52;;;5.88;;
17686;SDS011;8962;52.538;13.266;2022-10-20T06:39:14;9.13;;;5.88;;
17686;SDS011;8962;52.538;13.266;2022-10-20T06:41:45;12.68;;;6.43;;
17686;SDS011;8962;52.538;13.266;2022-10-20T06:44:19;9.32;;;6.00;;
17686;SDS011;8962;52.538;13.266;2022-10-20T06:46:46;14.85;;;5.93;;
17686;SDS011;8962;52.538;13.266;2022-10-20T06:49:17;12.07;;;5.97;;
17686;SDS011;8962;52.538;13.266;2022-10-20T06:51:45;11.05;;;7.07;;
17686;SDS011;8962;52.538;13.266;2022-10-20T06:54:12;11.05;;;6.28;;
17686;SDS011;8962;52.538;13.266;2022-10-20T06:56:39;8.05;;;5.70;;
17686;SDS011;8962;52.538;13.266;2022-10-20T06:59:06;14.85;;;6.13;;
17686;SDS011;8962;52.538;13.266;2022-10-20T07:01:36;12.02;;;6.70;;
17686;SDS011;8962;52.538;13.266;2022-10-20T07:04:06;12.73;;;6.45;;
17686;SDS011;8962;52.538;13.266;2022-10-20T07:06:36;13.82;;;6.70;;
17686;SDS011;8962;52.538;13.266;2022-10-20T07:09:04;11.18;;;6.70;;
17686;SDS011;8962;52.538;13.266;2022-10-20T07:11:35;13.02;;;6.53;;
17686;SDS011;8962;52.538;13.266;2022-10-20T07:14:02;11.52;;;6.88;;
17686;SDS011;8962;52.538;13.266;2022-10-20T07:16:31;16.30;;;6.93;;
17686;SDS011;8962;52.538;13.266;2022-10-20T07:19:01;13.57;;;6.40;;
17686;SDS011;8962;52.538;13.266;2022-10-20T07:21:30;9.80;;;6.05;;
17686;SDS011;8962;52.538;13.266;2022-10-20T07:23:59;16.90;;;7.03;;
17686;SDS011;8962;52.538;13.266;2022-10-20T07:26:29;17.17;;;6.57;;
17686;SDS011;8962;52.538;13.266;2022-10-20T07:28:57;11.45;;;6.25;;
17686;SDS011;8962;52.538;13.266;2022-10-20T07:31:29;11.23;;;5.85;;
17686;SDS011;8962;52.538;13.266;2022-10-20T07:33:58;12.30;;;5.88;;
17686;SDS011;8962;52.538;13.266;2022-10-20T07:36:30;10.55;;;6.20;;
17686;SDS011;8962;52.538;13.266;2022-10-20T07:38:58;11.43;;;6.10;;
17686;SDS011;8962;52.538;13.266;2022-10-20T07:41:28;11.63;;;6.35;;
17686;SDS011;8962;52.538;13.266;2022-10-20T07:43:55;12.98;;;6.57;;
17686;SDS011;8962;52.538;13.266;2022-10-20T07:46:22;13.10;;;6.65;;
17686;SDS011;8962;52.538;13.266;2022-10-20T07:48:49;8.70;;;5.65;;
17686;SDS011;8962;52.538;13.266;2022-10-20T07:51:23;10.13;;;6.03;;
17686;SDS011;8962;52.538;13.266;2022-10-20T07:53:54;11.23;;;6.38;;
17686;SDS011;8962;52.538;13.266;2022-10-20T07:56:23;13.20;;;6.63;;
17686;SDS011;8962;52.538;13.266;2022-10-20T07:58:54;11.48;;;6.22;;
17686;SDS011;8962;52.538;13.266;2022-10-20T08:01:22;9.57;;;5.68;;
17686;SDS011;8962;52.538;13.266;2022-10-20T08:03:49;10.85;;;6.22;;
17686;SDS011;8962;52.538;13.266;2022-10-20T08:06:17;9.32;;;5.72;;
17686;SDS011;8962;52.538;13.266;2022-10-20T08:08:44;11.73;;;6.32;;
17686;SDS011;8962;52.538;13.266;2022-10-20T08:11:14;10.55;;;6.03;;
17686;SDS011;8962;52.538;13.266;2022-10-20T08:13:41;10.93;;;6.03;;
17686;SDS011;8962;52.538;13.266;2022-10-20T08:16:11;10.85;;;5.93;;
17686;SDS011;8962;52.538;13.266;2022-10-20T08:18:39;10.93;;;6.28;;
17686;SDS011;8962;52.538;13.266;2022-10-20T08:21:08;9.82;;;6.18;;
17686;SDS011;8962;52.538;13.266;2022-10-20T08:23:38;11.88;;;6.38;;
17686;SDS011;8962;52.538;13.266;2022-10-20T08:26:08;11.57;;;6.30;;
17686;SDS011;8962;52.538;13.266;2022-10-20T08:28:37;12.65;;;6.45;;
17686;SDS011;8962;52.538;13.266;2022-10-20T08:31:05;9.50;;;6.13;;
17686;SDS011;8962;52.538;13.266;2022-10-20T08:33:33;14.60;;;6.03;;
17686;SDS011;8962;52.538;13.266;2022-10-20T08:36:01;9.13;;;6.15;;
17686;SDS011;8962;52.538;13.266;2022-10-20T08:38:28;16.20;;;6.43;;
17686;SDS011;8962;52.538;13.266;2022-10-20T08:41:05;9.57;;;6.07;;
17686;SDS011;8962;52.538;13.266;2022-10-20T08:43:41;9.57;;;4.93;;
17686;SDS011;8962;52.538;13.266;2022-10-20T08:46:11;10.02;;;4.97;;
17686;SDS011;8962;52.538;13.266;2022-10-20T08:48:39;9.35;;;4.82;;
17686;SDS011;8962;52.538;13.266;2022-10-20T08:51:17;8.77;;;4.47;;
17686;SDS011;8962;52.538;13.266;2022-10-20T08:53:46;6.40;;;4.53;;
17686;SDS011;8962;52.538;13.266;2022-10-20T08:56:14;8.77;;;4.63;;
17686;SDS011;8962;52.538;13.266;2022-10-20T08:58:44;6.38;;;4.53;;
17686;SDS011;8962;52.538;13.266;2022-10-20T09:01:15;8.55;;;5.00;;
17686;SDS011;8962;52.538;13.266;2022-10-20T09:03:47;8.25;;;4.85;;
17686;SDS011;8962;52.538;13.266;2022-10-20T09:06:18;9.75;;;5.60;;
17686;SDS011;8962;52.538;13.266;2022-10-20T09:08:46;10.43;;;4.68;;
17686;SDS011;8962;52.538;13.266;2022-10-20T09:11:15;8.20;;;4.82;;
17686;SDS011;8962;52.538;13.266;2022-10-20T09:13:46;7.97;;;4.55;;
17686;SDS011;8962;52.538;13.266;2022-10-20T09:16:17;9.00;;;4.25;;
17686;SDS011;8962;52.538;13.266;2022-10-20T09:18:49;9.43;;;4.78;;
17686;SDS011;8962;52.538;13.266;2022-10-20T09:21:18;7.35;;;4.57;;
17686;SDS011;8962;52.538;13.266;2022-10-20T09:23:47;10.98;;;5.03;;
17686;SDS011;8962;52.538;13.266;2022-10-20T09:26:19;9.02;;;5.35;;
17686;SDS011;8962;52.538;13.266;2022-10-20T09:28:48;8.38;;;4.90;;
17686;SDS011;8962;52.538;13.266;2022-10-20T09:31:30;8.40;;;5.05;;
17686;SDS011;8962;52.538;13.266;2022-10-20T09:34:08;8.75;;;4.72;;
17686;SDS011;8962;52.538;13.266;2022-10-20T09:36:46;11.80;;;5.65;;
17686;SDS011;8962;52.538;13.266;2022-10-20T09:39:18;13.02;;;5.68;;
17686;SDS011;8962;52.538;13.266;2022-10-20T09:41:47;8.60;;;5.45;;
17686;SDS011;8962;52.538;13.266;2022-10-20T09:44:17;10.93;;;5.35;;
17686;SDS011;8962;52.538;13.266;2022-10-20T09:46:50;9.85;;;5.45;;
17686;SDS011;8962;52.538;13.266;2022-10-20T09:49:21;10.75;;;5.88;;
17686;SDS011;8962;52.538;13.266;2022-10-20T09:51:50;9.93;;;5.43;;
17686;SDS011;8962;52.538;13.266;2022-10-20T09:54:18;11.05;;;5.70;;
17686;SDS011;8962;52.538;13.266;2022-10-20T09:56:48;11.00;;;5.20;;
17686;SDS011;8962;52.538;13.266;2022-10-20T09:59:22;12.93;;;6.13;;
17686;SDS011;8962;52.538;13.266;2022-10-20T10:01:54;10.18;;;6.50;;
17686;SDS011;8962;52.538;13.266;2022-10-20T10:04:30;14.43;;;7.43;;
17686;SDS011;8962;52.538;13.266;2022-10-20T10:07:00;16.70;;;8.93;;
17686;SDS011;8962;52.538;13.266;2022-10-20T10:09:29;15.40;;;7.78;;
17686;SDS011;8962;52.538;13.266;2022-10-20T10:11:59;10.35;;;4.82;;
17686;SDS011;8962;52.538;13.266;2022-10-20T10:14:30;9.38;;;5.30;;
17686;SDS011;8962;52.538;13.266;2022-10-20T10:17:00;13.35;;;6.68;;
17686;SDS011;8962;52.538;13.266;2022-10-20T10:19:28;8.55;;;5.63;;
17686;SDS011;8962;52.538;13.266;2022-10-20T10:21:57;11.90;;;5.65;;
17686;SDS011;8962;52.538;13.266;2022-10-20T10:27:21;14.48;;;5.63;;
17686;SDS011;8962;52.538;13.266;2022-10-20T10:29:51;11.18;;;5.28;;
17686;SDS011;8962;52.538;13.266;2022-10-20T10:32:21;10.70;;;4.45;;
17686;SDS011;8962;52.538;13.266;2022-10-20T10:37:42;9.57;;;4.25;;
17686;SDS011;8962;52.538;13.266;2022-10-20T10:40:12;13.93;;;5.45;;
17686;SDS011;8962;52.538;13.266;2022-10-20T10:42:44;9.75;;;4.03;;
17686;SDS011;8962;52.538;13.266;2022-10-20T10:45:21;10.18;;;4.82;;
17686;SDS011;8962;52.538;13.266;2022-10-20T10:48:04;6.00;;;3.63;;
17686;SDS011;8962;52.538;13.266;2022-10-20T10:50:53;9.52;;;3.92;;
17686;SDS011;8962;52.538;13.266;2022-10-20T10:53:26;7.18;;;3.80;;
17686;SDS011;8962;52.538;13.266;2022-10-20T10:56:07;6.50;;;3.78;;
17686;SDS011;8962;52.538;13.266;2022-10-20T10:58:43;7.95;;;4.93;;
17686;SDS011;8962;52.538;13.266;2022-10-20T11:01:23;8.20;;;3.88;;
17686;SDS011;8962;52.538;13.266;2022-10-20T11:04:04;9.00;;;3.90;;
17686;SDS011;8962;52.538;13.266;2022-10-20T11:06:45;7.45;;;3.80;;
17686;SDS011;8962;52.538;13.266;2022-10-20T11:09:20;8.80;;;3.78;;
17686;SDS011;8962;52.538;13.266;2022-10-20T11:11:59;7.25;;;4.35;;
17686;SDS011;8962;52.538;13.266;2022-10-20T11:14:44;12.48;;;5.88;;
17686;SDS011;8962;52.538;13.266;2022-10-20T11:17:25;14.15;;;7.68;;
17686;SDS011;8962;52.538;13.266;2022-10-20T11:20:09;10.68;;;4.97;;
17686;SDS011;8962;52.538;13.266;2022-10-20T11:26:02;8.98;;;3.92;;
17686;SDS011;8962;52.538;13.266;2022-10-20T11:28:38;7.35;;;3.80;;
17686;SDS011;8962;52.538;13.266;2022-10-20T11:31:11;8.45;;;3.58;;
17686;SDS011;8962;52.538;13.266;2022-10-20T11:33:49;4.85;;;3.33;;
17686;SDS011;8962;52.538;13.266;2022-10-20T11:36:22;9.38;;;3.90;;
17686;SDS011;8962;52.538;13.266;2022-10-20T11:38:52;7.28;;;3.60;;
17686;SDS011;8962;52.538;13.266;2022-10-20T11:41:22;4.95;;;3.03;;
17686;SDS011;8962;52.538;13.266;2022-10-20T11:43:54;7.35;;;3.00;;
17686;SDS011;8962;52.538;13.266;2022-10-20T11:46:31;8.18;;;3.03;;
17686;SDS011;8962;52.538;13.266;2022-10-20T11:49:03;6.28;;;3.40;;
17686;SDS011;8962;52.538;13.266;2022-10-20T11:51:45;6.63;;;3.92;;
17686;SDS011;8962;52.538;13.266;2022-10-20T11:54:50;5.70;;;3.30;;
17686;SDS011;8962;52.538;13.266;2022-10-20T11:57:42;9.85;;;3.30;;
17686;SDS011;8962;52.538;13.266;2022-10-20T12:00:27;12.18;;;3.88;;
17686;SDS011;8962;52.538;13.266;2022-10-20T12:03:26;8.90;;;3.70;;
17686;SDS011;8962;52.538;13.266;2022-10-20T12:06:22;4.35;;;3.10;;
17686;SDS011;8962;52.538;13.266;2022-10-20T12:09:15;6.32;;;2.78;;
17686;SDS011;8962;52.538;13.266;2022-10-20T12:12:04;4.20;;;2.40;;
17686;SDS011;8962;52.538;13.266;2022-10-20T12:14:35;6.63;;;2.50;;
17686;SDS011;8962;52.538;13.266;2022-10-20T12:17:11;4.97;;;2.65;;
17686;SDS011;8962;52.538;13.266;2022-10-20T12:23:04;6.93;;;3.58;;
17686;SDS011;8962;52.538;13.266;2022-10-20T12:25:33;7.28;;;3.33;;
17686;SDS011;8962;52.538;13.266;2022-10-20T12:31:08;6.63;;;3.05;;
17686;SDS011;8962;52.538;13.266;2022-10-20T12:33:38;11.13;;;5.57;;
17686;SDS011;8962;52.538;13.266;2022-10-20T12:39:15;7.15;;;3.00;;
17686;SDS011;8962;52.538;13.266;2022-10-20T12:41:56;5.72;;;2.90;;
17686;SDS011;8962;52.538;13.266;2022-10-20T12:44:27;5.07;;;3.30;;
17686;SDS011;8962;52.538;13.266;2022-10-20T12:46:57;9.93;;;5.30;;
17686;SDS011;8962;52.538;13.266;2022-10-20T12:49:30;9.10;;;3.92;;
17686;SDS011;8962;52.538;13.266;2022-10-20T12:52:00;3.28;;;2.53;;
17686;SDS011;8962;52.538;13.266;2022-10-20T12:54:32;6.18;;;2.83;;
17686;SDS011;8962;52.538;13.266;2022-10-20T12:57:03;4.00;;;2.80;;
17686;SDS011;8962;52.538;13.266;2022-10-20T12:59:50;5.50;;;3.40;;
17686;SDS011;8962;52.538;13.266;2022-10-20T13:08:18;5.05;;;2.90;;
17686;SDS011;8962;52.538;13.266;2022-10-20T13:10:50;5.35;;;2.83;;
17686;SDS011;8962;52.538;13.266;2022-10-20T13:13:41;5.47;;;2.70;;
17686;SDS011;8962;52.538;13.266;2022-10-20T13:16:24;5.85;;;2.65;;
17686;SDS011;8962;52.538;13.266;2022-10-20T13:18:56;3.88;;;2.67;;
17686;SDS011;8962;52.538;13.266;2022-10-20T13:21:30;4.38;;;2.90;;
17686;SDS011;8962;52.538;13.266;2022-10-20T13:24:00;8.50;;;4.68;;
17686;SDS011;8962;52.538;13.266;2022-10-20T13:26:44;5.35;;;2.90;;
17686;SDS011;8962;52.538;13.266;2022-10-20T13:29:16;5.80;;;3.00;;
17686;SDS011;8962;52.538;13.266;2022-10-20T13:31:48;5.38;;;2.75;;
17686;SDS011;8962;52.538;13.266;2022-10-20T13:34:23;8.77;;;3.55;;
17686;SDS011;8962;52.538;13.266;2022-10-20T13:40:05;6.63;;;3.40;;
17686;SDS011;8962;52.538;13.266;2022-10-20T13:42:43;5.50;;;3.45;;
17686;SDS011;8962;52.538;13.266;2022-10-20T13:45:24;8.45;;;3.67;;
17686;SDS011;8962;52.538;13.266;2022-10-20T13:48:02;5.55;;;3.30;;
17686;SDS011;8962;52.538;13.266;2022-10-20T13:50:38;7.28;;;3.55;;
17686;SDS011;8962;52.538;13.266;2022-10-20T13:53:10;9.07;;;3.72;;
17686;SDS011;8962;52.538;13.266;2022-10-20T13:55:51;10.00;;;4.40;;
17686;SDS011;8962;52.538;13.266;2022-10-20T13:58:24;8.40;;;4.35;;
17686;SDS011;8962;52.538;13.266;2022-10-20T14:00:55;6.72;;;4.35;;
17686;SDS011;8962;52.538;13.266;2022-10-20T14:03:39;8.07;;;4.20;;
17686;SDS011;8962;52.538;13.266;2022-10-20T14:08:57;4.97;;;3.60;;
17686;SDS011;8962;52.538;13.266;2022-10-20T14:11:33;11.38;;;3.90;;
17686;SDS011;8962;52.538;13.266;2022-10-20T14:14:04;10.00;;;3.78;;
17686;SDS011;8962;52.538;13.266;2022-10-20T14:16:31;8.73;;;4.30;;
17686;SDS011;8962;52.538;13.266;2022-10-20T14:18:58;11.05;;;4.57;;
17686;SDS011;8962;52.538;13.266;2022-10-20T14:21:27;9.15;;;4.28;;
17686;SDS011;8962;52.538;13.266;2022-10-20T14:23:54;7.03;;;3.63;;
17686;SDS011;8962;52.538;13.266;2022-10-20T14:26:31;6.82;;;4.18;;
17686;SDS011;8962;52.538;13.266;2022-10-20T14:29:00;10.18;;;4.72;;
17686;SDS011;8962;52.538;13.266;2022-10-20T14:31:30;11.25;;;6.30;;
17686;SDS011;8962;52.538;13.266;2022-10-20T14:33:58;19.95;;;11.95;;
17686;SDS011;8962;52.538;13.266;2022-10-20T14:36:25;19.92;;;7.72;;
17686;SDS011;8962;52.538;13.266;2022-10-20T14:38:54;8.20;;;4.13;;
17686;SDS011;8962;52.538;13.266;2022-10-20T14:41:25;6.90;;;3.80;;
17686;SDS011;8962;52.538;13.266;2022-10-20T14:43:54;6.78;;;4.40;;
17686;SDS011;8962;52.538;13.266;2022-10-20T14:46:28;10.68;;;3.88;;
17686;SDS011;8962;52.538;13.266;2022-10-20T14:49:00;6.80;;;4.22;;
17686;SDS011;8962;52.538;13.266;2022-10-20T14:51:29;12.80;;;5.32;;
17686;SDS011;8962;52.538;13.266;2022-10-20T14:54:14;11.85;;;5.80;;
17686;SDS011;8962;52.538;13.266;2022-10-20T14:57:28;7.93;;;4.72;;
17686;SDS011;8962;52.538;13.266;2022-10-20T14:59:58;6.35;;;3.42;;
17686;SDS011;8962;52.538;13.266;2022-10-20T15:02:30;7.20;;;3.50;;
17686;SDS011;8962;52.538;13.266;2022-10-20T15:05:19;7.30;;;3.30;;
17686;SDS011;8962;52.538;13.266;2022-10-20T15:07:49;7.18;;;4.30;;
17686;SDS011;8962;52.538;13.266;2022-10-20T15:10:18;8.52;;;5.25;;
17686;SDS011;8962;52.538;13.266;2022-10-20T15:12:47;9.75;;;4.63;;
17686;SDS011;8962;52.538;13.266;2022-10-20T15:15:17;8.05;;;3.65;;
17686;SDS011;8962;52.538;13.266;2022-10-20T15:17:49;8.88;;;4.38;;
17686;SDS011;8962;52.538;13.266;2022-10-20T15:20:31;8.35;;;3.90;;
17686;SDS011;8962;52.538;13.266;2022-10-20T15:23:02;8.32;;;4.50;;
17686;SDS011;8962;52.538;13.266;2022-10-20T15:25:31;8.30;;;4.22;;
17686;SDS011;8962;52.538;13.266;2022-10-20T15:28:01;8.32;;;4.13;;
17686;SDS011;8962;52.538;13.266;2022-10-20T15:30:29;9.43;;;4.07;;
17686;SDS011;8962;52.538;13.266;2022-10-20T15:33:00;9.88;;;4.22;;
17686;SDS011;8962;52.538;13.266;2022-10-20T15:35:27;7.70;;;4.18;;
17686;SDS011;8962;52.538;13.266;2022-10-20T15:37:58;7.03;;;3.92;;
17686;SDS011;8962;52.538;13.266;2022-10-20T15:40:24;9.80;;;4.65;;
17686;SDS011;8962;52.538;13.266;2022-10-20T15:42:54;9.07;;;4.93;;
17686;SDS011;8962;52.538;13.266;2022-10-20T15:45:22;10.48;;;5.82;;
17686;SDS011;8962;52.538;13.266;2022-10-20T15:47:50;10.57;;;5.90;;